16 de agosto de 2022

Hora Código Clima Temp. Visibilidade Tecto Vento METAR/SPECI
05:50
M
19 °C 5 km 9.200 ft 180° 180° 4 kt METAR EDWE 160350Z AUTO 18004KT 150V210 5000 // BKN092/// 19/18 Q1005
05:20
I
18 °C 4,3 km - Var 000° 0 kt METAR EDWE 160320Z AUTO 00000KT 4300 // FEW100/// 18/17 Q1005
04:50
V
20 °C 9 km 10.000 ft 170° 170° 3 kt METAR EDWE 160250Z AUTO 17003KT 120V190 9000 // BKN100/// BKN160/// 20/18 Q1005
04:20
V
19 °C 10 km+ 15.000 ft Var Var 2 kt METAR EDWE 160220Z AUTO VRB02KT 9999 // FEW100/// SCT120/// OVC150/// 19/18 Q1005
03:50
V
19 °C 8 km 11.000 ft 220° 220° 3 kt METAR EDWE 160150Z AUTO 22003KT 8000 // FEW091/// OVC110/// 19/18 Q1005
03:20
V
19 °C 9 km 9.600 ft Var 000° 0 kt METAR EDWE 160120Z AUTO 00000KT 9000 // OVC096/// 19/18 Q1005
02:50
I
18 °C 4,7 km 9.600 ft 280° 280° 1 kt METAR EDWE 160050Z AUTO 28001KT 4700 // OVC096/// 18/18 Q1005
02:20
V
18 °C 10 km+ 9.400 ft Var 000° 0 kt METAR EDWE 160020Z AUTO 00000KT 9999 // BKN094/// OVC170/// 18/18 Q1005
01:50
V
19 °C 10 km+ 9.200 ft 140° 140° 3 kt METAR EDWE 152350Z AUTO 14003KT 9999 // BKN092/// OVC110/// 19/18 Q1005
01:20
V
19 °C 8 km 8.600 ft Var 000° 0 kt METAR EDWE 152320Z AUTO 00000KT 8000 // BKN086/// OVC120/// 19/18 Q1005
00:50
V
19 °C 10 km+ 11.000 ft Var 000° 0 kt METAR EDWE 152250Z AUTO 00000KT 9999 // BKN110/// OVC150/// 19/18 Q1005
00:20
V
19 °C 10 km+ 11.000 ft Var 000° 0 kt METAR EDWE 152220Z AUTO 00000KT 9999 // FEW090/// BKN110/// OVC150/// 19/18 Q1005

15 de agosto de 2022

Hora Código Clima Temp. Visibilidade Tecto Vento METAR/SPECI
23:50
V
20 °C 10 km+ 10.000 ft 200° 200° 4 kt METAR EDWE 152150Z AUTO 20004KT 9999 // OVC100/// 20/18 Q1005
23:20
V
19 °C 10 km+ 12.000 ft 170° 170° 3 kt METAR EDWE 152120Z AUTO 17003KT 140V200 9999 // OVC120/// 19/18 Q1005
22:50
V
19 °C 10 km+ 13.000 ft Var Var 1 kt METAR EDWE 152050Z AUTO VRB01KT 9999 // OVC130/// 19/17 Q1005
22:20
V
18 °C 10 km+ 14.000 ft 150° 150° 4 kt METAR EDWE 152020Z AUTO 15004KT 9999 // FEW120/// BKN140/// OVC160/// 18/17 Q1005
21:50
V
17 °C 10 km+ 13.000 ft 060° 060° 4 kt METAR EDWE 151950Z AUTO 06004KT 040V150 9999 // BKN130/// BKN210/// 17/17 Q1004
21:20
V
18 °C 10 km+ - 120° 120° 3 kt METAR EDWE 151920Z AUTO 12003KT 9999 // FEW140/// 18/17 Q1004
20:50
V
20 °C 10 km+ - Var Var 1 kt METAR EDWE 151850Z AUTO VRB01KT 9999 // NCD 20/17 Q1003
06:20
V
20 °C 10 km+ 13.000 ft 080° 080° 2 kt METAR EDWE 150420Z AUTO 08002KT 9999 // BKN130/// 20/16 Q1003
05:50
V
21 °C 10 km+ - 130° 130° 4 kt METAR EDWE 150350Z AUTO 13004KT 9999 // FEW140/// SCT170/// 21/16 Q1003
05:20
V
21 °C 10 km+ 16.000 ft 090° 090° 3 kt METAR EDWE 150320Z AUTO 09003KT 9999 // BKN160/// 21/17 Q1003
04:50
V
20 °C 10 km+ 15.000 ft 090° 090° 4 kt METAR EDWE 150250Z AUTO 09004KT 9999 // BKN150/// 20/17 Q1003
04:20
V
20 °C 10 km+ - 110° 110° 3 kt METAR EDWE 150220Z AUTO 11003KT 9999 // FEW130/// 20/17 Q1003
03:50
V
20 °C 10 km+ - Var Var 1 kt METAR EDWE 150150Z AUTO VRB01KT 9999 // FEW082/// 20/17 Q1004
03:20
V
20 °C 10 km+ 11.000 ft 060° 060° 2 kt METAR EDWE 150120Z AUTO 06002KT 9999 // FEW079/// BKN110/// 20/17 Q1004
02:50
V
22 °C 10 km+ 11.000 ft 070° 070° 5 kt METAR EDWE 150050Z AUTO 07005KT 9999 // FEW079/// BKN110/// BKN130/// 22/18 Q1004
02:20
V
22 °C 10 km+ 13.000 ft 070° 070° 7 kt METAR EDWE 150020Z AUTO 07007KT 9999 // FEW079/// SCT100/// BKN130/// 22/18 Q1004
01:50
V
22 °C 10 km+ 9.000 ft 080° 080° 3 kt METAR EDWE 142350Z AUTO 08003KT 9999 // FEW079/// BKN090/// BKN160/// 22/18 Q1004
01:20
V
22 °C 10 km+ 8.900 ft 050° 050° 5 kt METAR EDWE 142320Z AUTO 05005KT 9999 // FEW074/// BKN089/// BKN160/// 22/18 Q1005
00:50
V
22 °C 10 km+ 7.700 ft 090° 090° 3 kt METAR EDWE 142250Z AUTO 09003KT 9999 // BKN077/// 22/17 Q1005
00:20
V
22 °C 10 km+ - 060° 060° 3 kt METAR EDWE 142220Z AUTO 06003KT 040V100 9999 // SCT078/// 22/16 Q1005

14 de agosto de 2022

Hora Código Clima Temp. Visibilidade Tecto Vento METAR/SPECI
23:50
V
23 °C 10 km+ - 080° 080° 5 kt METAR EDWE 142150Z AUTO 08005KT 9999 // FEW075/// 23/16 Q1005
23:20
V
22 °C 10 km+ - 070° 070° 4 kt METAR EDWE 142120Z AUTO 07004KT 9999 // FEW078/// 22/16 Q1005
22:50
V
22 °C 10 km+ - 080° 080° 3 kt METAR EDWE 142050Z AUTO 08003KT 020V100 9999 // FEW074/// 22/17 Q1005
22:20
V
22 °C 10 km+ - 050° 050° 6 kt METAR EDWE 142020Z AUTO 05006KT 9999 // NCD 22/17 Q1005
21:50
V
23 °C 10 km+ - 050° 050° 3 kt METAR EDWE 141950Z AUTO 05003KT 9999 // NCD 23/17 Q1005
21:20
V
23 °C 10 km+ - 060° 060° 3 kt METAR EDWE 141920Z AUTO 06003KT 9999 // FEW120/// 23/17 Q1005
20:50
V
24 °C 10 km+ - 060° 060° 3 kt METAR EDWE 141850Z AUTO 06003KT 9999 // NCD 24/17 Q1005
20:20
V
27 °C 10 km+ - 070° 070° 4 kt METAR EDWE 141820Z AUTO 07004KT CAVOK 27/17 Q1006
19:50
V
28 °C 10 km+ - 100° 100° 5 kt METAR EDWE 141750Z AUTO 10005KT CAVOK 28/17 Q1006
19:20
V
29 °C 10 km+ - 100° 100° 5 kt METAR EDWE 141720Z AUTO 10005KT 080V140 CAVOK 29/17 Q1006
18:50
V
29 °C 10 km+ - 110° 110° 6 kt METAR EDWE 141650Z AUTO 11006KT 090V150 CAVOK 29/16 Q1006
18:20
V
30 °C 10 km+ - 120° 120° 6 kt METAR EDWE 141620Z AUTO 12006KT 090V150 CAVOK 30/16 Q1006
17:50
V
30 °C 10 km+ - 130° 130° 8 kt METAR EDWE 141550Z AUTO 13008KT CAVOK 30/16 Q1006
17:20
V
30 °C 10 km+ - 120° 120° 10 kt METAR EDWE 141520Z AUTO 12010KT 090V160 9999 FEW064/// 30/15 Q1007
16:50
V
30 °C 10 km+ - 110° 110° 9 kt METAR EDWE 141450Z AUTO 11009KT 9999 FEW058/// 30/17 Q1007
16:20
V
30 °C 10 km+ - 110° 110° 8 kt METAR EDWE 141420Z AUTO 11008KT 080V150 9999 FEW060/// 30/16 Q1007
15:50
V
29 °C 10 km+ - 100° 100° 12 kt METAR EDWE 141350Z AUTO 10012KT 9999 FEW056/// 29/16 Q1008
15:20
V
30 °C 10 km+ - 120° 120° 9 kt METAR EDWE 141320Z AUTO 12009KT 090V180 9999 FEW056/// 30/16 Q1008
14:50
V
30 °C 10 km+ - 110° 110° 9 kt METAR EDWE 141250Z AUTO 11009KT 090V150 9999 SCT055/// 30/17 Q1009
Dados mais antigos

Nós e terceiros acompanhamos seu comportamento na internet em nosso site com cookies. Se você continuar, nós assumimos que você concorda com nossa política de cookies. Saiba mais